Time;durP1;ratioP1;P1;durP2;ratioP2;P2;SDS_P1;SDS_P2;PMS_P1;PMS_P2;Temp;Humidity;BMP_temperature;BMP_pressure;BME280_temperature;BME280_humidity;BME280_pressure;Samples;Min_cycle;Max_cycle;Signal;HPM_P1;HPM_P2
2023/03/01 00:01:24;;;;;;;5.45;4.18;;;;;;;19.61;31.18;103167.69;5085147;28;20025;-69
2023/03/01 00:03:51;;;;;;;6.78;4.32;;;;;;;19.59;31.17;103168.78;5088171;28;20048;-70
2023/03/01 00:06:16;;;;;;;5.88;4.30;;;;;;;19.60;31.03;103168.63;5093046;28;20058;-69
2023/03/01 00:08:42;;;;;;;6.05;4.28;;;;;;;19.57;31.30;103154.50;5092488;28;20035;-69
2023/03/01 00:11:12;;;;;;;7.30;3.55;;;;;;;19.56;31.01;103158.19;5091313;28;20039;-69
2023/03/01 00:13:38;;;;;;;5.38;3.85;;;;;;;19.07;30.99;103079.19;5088179;28;20031;-69
2023/03/01 00:16:06;;;;;;;6.15;4.43;;;;;;;19.45;31.17;103141.00;5097612;28;20030;-70
2023/03/01 00:18:31;;;;;;;5.65;3.72;;;;;;;19.56;31.26;103164.44;5093631;28;20031;-69
2023/03/01 00:20:57;;;;;;;5.18;3.72;;;;;;;19.47;30.90;103152.53;5087894;28;20109;-69
2023/03/01 00:23:22;;;;;;;4.90;3.70;;;;;;;19.58;30.72;103161.63;5096589;28;20020;-69
2023/03/01 00:25:48;;;;;;;4.90;3.80;;;;;;;19.52;30.93;103154.88;5100782;28;20083;-70
2023/03/01 00:28:13;;;;;;;4.75;3.67;;;;;;;19.56;30.91;103153.66;5092021;28;20431;-69
2023/03/01 00:30:39;;;;;;;5.45;3.45;;;;;;;19.56;30.91;103156.34;5090629;28;20036;-69
2023/03/01 00:33:04;;;;;;;5.65;3.70;;;;;;;18.80;30.99;103030.09;5098725;28;20035;-69
2023/03/01 00:35:32;;;;;;;5.28;3.42;;;;;;;19.53;30.82;103153.88;5097105;28;20056;-69
2023/03/01 00:37:57;;;;;;;6.05;3.70;;;;;;;19.55;31.09;103153.78;5092878;28;20024;-69
2023/03/01 00:40:24;;;;;;;5.47;3.67;;;;;;;19.54;31.06;103144.84;5102877;28;20028;-69
2023/03/01 00:42:49;;;;;;;5.78;3.67;;;;;;;19.54;30.81;103143.94;5098101;28;20040;-69
2023/03/01 00:45:15;;;;;;;5.03;3.50;;;;;;;19.52;30.99;103138.69;5095689;28;20485;-70
2023/03/01 00:47:40;;;;;;;4.45;3.47;;;;;;;19.54;30.82;103142.13;5089305;28;20039;-69
2023/03/01 00:50:06;;;;;;;4.82;3.40;;;;;;;19.53;30.76;103139.53;5094912;28;20032;-69
2023/03/01 00:52:31;;;;;;;5.80;3.70;;;;;;;19.52;30.97;103127.03;5103202;28;20039;-68
2023/03/01 00:54:57;;;;;;;4.28;3.13;;;;;;;19.52;30.74;103135.13;5093653;28;20087;-68
2023/03/01 00:57:23;;;;;;;4.18;3.33;;;;;;;19.49;30.90;103134.38;5088595;28;20028;-68
2023/03/01 00:59:48;;;;;;;4.07;2.58;;;;;;;19.52;30.71;103136.00;5094301;28;20553;-68
2023/03/01 01:02:13;;;;;;;4.28;3.47;;;;;;;19.47;31.09;103140.88;5097555;28;20073;-68
2023/03/01 01:04:39;;;;;;;3.60;2.90;;;;;;;19.49;30.73;103128.97;5091543;28;20075;-69
2023/03/01 01:07:05;;;;;;;4.60;2.97;;;;;;;19.27;30.63;103095.69;5090445;28;20036;-70
2023/03/01 01:09:31;;;;;;;4.82;3.13;;;;;;;19.51;30.57;103130.72;5097781;28;20024;-70
2023/03/01 01:11:56;;;;;;;5.20;3.67;;;;;;;19.47;30.68;103122.00;5094587;28;20063;-70
2023/03/01 01:14:21;;;;;;;5.15;3.50;;;;;;;19.49;30.94;103131.69;5089117;28;20032;-70
2023/03/01 01:16:47;;;;;;;4.22;3.40;;;;;;;19.50;30.73;103127.16;5088467;28;20024;-70
2023/03/01 01:19:13;;;;;;;5.43;3.58;;;;;;;19.49;31.08;103120.03;5092123;28;20040;-70
2023/03/01 01:21:38;;;;;;;5.22;3.50;;;;;;;19.49;30.78;103115.50;5093658;28;20120;-70
2023/03/01 01:24:04;;;;;;;4.63;3.28;;;;;;;19.49;30.54;103112.78;5087629;28;20031;-70
2023/03/01 01:26:32;;;;;;;5.75;3.50;;;;;;;18.81;30.98;103005.69;5089153;28;20117;-70
2023/03/01 01:28:57;;;;;;;5.63;3.08;;;;;;;19.51;30.79;103119.94;5092961;28;20035;-68
2023/03/01 01:31:23;;;;;;;4.70;3.17;;;;;;;19.49;30.88;103118.19;5090933;28;20032;-70
2023/03/01 01:33:50;;;;;;;5.15;3.60;;;;;;;19.03;30.83;103042.69;5088646;28;20036;-70
2023/03/01 01:36:15;;;;;;;5.80;3.42;;;;;;;19.32;31.00;103086.25;5100588;28;20020;-70
2023/03/01 01:38:42;;;;;;;4.22;3.10;;;;;;;19.42;30.97;103116.09;5093621;28;20036;-71
2023/03/01 01:41:08;;;;;;;4.93;3.10;;;;;;;19.49;31.00;103102.00;5091240;28;20123;-70
2023/03/01 01:43:40;;;;;;;5.78;3.53;;;;;;;19.51;31.01;103109.13;5090871;28;20033;-70
2023/03/01 01:46:31;;;;;;;4.60;3.75;;;;;;;19.51;30.87;103109.13;5087723;28;20028;-70
2023/03/01 01:49:42;;;;;;;5.43;3.92;;;;;;;19.50;30.98;103108.28;5101797;28;20031;-70
2023/03/01 01:52:10;;;;;;;4.32;3.42;;;;;;;19.49;30.89;103104.69;5089220;28;20020;-70
2023/03/01 01:54:39;;;;;;;3.67;2.90;;;;;;;19.48;30.84;103102.13;5089376;28;20506;-69
2023/03/01 01:57:09;;;;;;;4.25;3.10;;;;;;;19.47;30.99;103101.28;5090074;28;20035;-70
2023/03/01 01:59:35;;;;;;;3.95;3.25;;;;;;;19.38;30.95;103083.09;5101811;28;20035;-70
2023/03/01 02:02:02;;;;;;;3.80;3.08;;;;;;;19.48;30.53;103099.44;5093492;28;20060;-70
2023/03/01 02:04:28;;;;;;;3.95;2.92;;;;;;;19.47;30.82;103098.56;5093888;28;20033;-70
2023/03/01 02:07:04;;;;;;;4.03;2.83;;;;;;;19.47;30.90;103089.63;5089277;28;20039;-70
2023/03/01 02:09:30;;;;;;;3.42;2.78;;;;;;;19.48;30.89;103096.72;5092720;28;20040;-70
2023/03/01 02:11:55;;;;;;;3.95;3.10;;;;;;;19.48;30.96;103094.88;5091424;28;20045;-69
2023/03/01 02:14:21;;;;;;;4.22;3.13;;;;;;;19.48;30.88;103092.19;5085701;28;20032;-70
2023/03/01 02:16:47;;;;;;;4.25;3.40;;;;;;;19.49;30.75;103088.50;5072348;28;20047;-70
2023/03/01 02:19:20;;;;;;;4.55;3.20;;;;;;;19.00;30.81;103015.09;5094363;28;20032;-69
2023/03/01 02:21:59;;;;;;;4.40;2.92;;;;;;;19.48;30.70;103089.50;5096345;28;20036;-71
2023/03/01 02:24:47;;;;;;;4.28;3.17;;;;;;;19.49;30.82;103082.25;5092341;28;20032;-70
2023/03/01 02:27:13;;;;;;;3.58;2.92;;;;;;;19.48;30.39;103089.50;5094218;28;20020;-70
2023/03/01 02:29:38;;;;;;;5.30;3.00;;;;;;;19.18;30.81;103037.94;5093537;28;20032;-70
2023/03/01 02:32:04;;;;;;;3.83;2.80;;;;;;;19.49;30.92;103082.25;5088065;28;20116;-70
2023/03/01 02:34:30;;;;;;;3.38;2.60;;;;;;;19.03;30.99;103002.25;5088294;28;20047;-69
2023/03/01 02:37:07;;;;;;;4.00;3.22;;;;;;;19.49;30.85;103076.84;5093391;28;20035;-70
2023/03/01 02:39:36;;;;;;;4.03;2.97;;;;;;;19.49;30.76;103075.00;5090497;28;20035;-70
2023/03/01 02:42:02;;;;;;;3.88;3.00;;;;;;;19.27;30.80;103044.44;5095300;28;20493;-70
2023/03/01 02:44:27;;;;;;;4.05;2.90;;;;;;;19.49;31.14;103079.56;5087439;28;20024;-70
2023/03/01 02:46:56;;;;;;;3.70;2.60;;;;;;;18.83;30.91;102966.03;5100918;28;20024;-70
2023/03/01 02:49:27;;;;;;;3.38;2.60;;;;;;;19.48;30.83;103073.31;5083894;28;20389;-70
2023/03/01 02:52:18;;;;;;;4.40;2.92;;;;;;;19.49;30.66;103075.00;5093740;28;20029;-70
2023/03/01 02:54:51;;;;;;;4.32;3.40;;;;;;;19.48;30.67;103059.81;5098394;28;20024;-70
2023/03/01 02:57:17;;;;;;;4.15;3.20;;;;;;;19.49;30.64;103052.56;5095175;28;20030;-70
2023/03/01 02:59:43;;;;;;;4.20;2.90;;;;;;;19.49;30.59;103056.13;5099288;28;20032;-70
2023/03/01 03:02:20;;;;;;;4.57;2.80;;;;;;;19.50;30.66;103051.63;5087103;28;20046;-70
2023/03/01 03:04:46;;;;;;;4.18;2.88;;;;;;;19.51;30.59;103057.88;5094548;28;20028;-70
2023/03/01 03:07:11;;;;;;;3.70;2.58;;;;;;;19.51;30.72;103052.47;5093830;28;20016;-70
2023/03/01 03:09:37;;;;;;;6.68;2.65;;;;;;;19.48;30.72;103042.78;5086967;28;20043;-70
2023/03/01 03:12:02;;;;;;;3.90;2.72;;;;;;;19.02;30.74;102967.28;5088306;28;20020;-68
2023/03/01 03:14:27;;;;;;;5.35;3.08;;;;;;;19.52;30.78;103052.34;5094549;28;20028;-68
2023/03/01 03:16:53;;;;;;;3.42;2.90;;;;;;;19.33;30.76;103017.03;5091214;28;20486;-69
2023/03/01 03:19:19;;;;;;;3.65;3.00;;;;;;;19.54;30.84;103046.81;5086727;28;20025;-69
2023/03/01 03:21:44;;;;;;;3.05;2.60;;;;;;;19.48;30.48;103029.28;5091130;28;20040;-69
2023/03/01 03:24:09;;;;;;;4.53;3.10;;;;;;;19.07;30.85;102979.44;5094635;28;20029;-70
2023/03/01 03:26:35;;;;;;;3.35;2.75;;;;;;;19.53;30.65;103037.00;5089447;28;20043;-70
2023/03/01 03:29:00;;;;;;;3.22;2.65;;;;;;;19.54;30.82;103038.72;5088327;28;20027;-69
2023/03/01 03:31:26;;;;;;;3.22;2.72;;;;;;;18.92;30.40;102929.44;5083845;28;20489;-69
2023/03/01 03:33:51;;;;;;;3.28;2.70;;;;;;;19.47;30.64;103014.09;5093225;28;20036;-69
2023/03/01 03:36:22;;;;;;;3.50;2.60;;;;;;;19.01;30.55;102933.25;5086389;28;20029;-69
2023/03/01 03:38:48;;;;;;;3.40;2.70;;;;;;;19.54;30.61;103023.41;5088113;28;20028;-69
2023/03/01 03:41:14;;;;;;;3.28;2.70;;;;;;;19.54;30.54;103026.13;5073338;28;20028;-69
2023/03/01 03:43:42;;;;;;;3.65;3.10;;;;;;;19.15;30.59;102959.97;5093022;28;20028;-69
2023/03/01 03:46:08;;;;;;;2.97;2.50;;;;;;;19.07;30.69;102955.16;5091305;28;20023;-69
2023/03/01 03:48:38;;;;;;;3.92;3.08;;;;;;;19.56;30.76;103042.16;5094876;28;20020;-69
2023/03/01 03:51:07;;;;;;;5.07;2.63;;;;;;;19.56;30.48;103044.88;5091043;28;20035;-69
2023/03/01 03:53:32;;;;;;;3.90;2.70;;;;;;;18.97;30.51;102938.00;5091087;28;20035;-69
2023/03/01 03:55:58;;;;;;;3.58;2.42;;;;;;;19.20;30.56;102991.00;5090258;28;20043;-69
2023/03/01 03:58:25;;;;;;;4.00;2.88;;;;;;;19.46;30.72;103031.25;5074026;28;20055;-69
2023/03/01 04:00:53;;;;;;;3.90;2.88;;;;;;;19.57;30.47;103036.66;5089947;28;20020;-69
2023/03/01 04:03:19;;;;;;;3.45;2.45;;;;;;;19.47;30.44;103035.66;5090365;28;20555;-70
2023/03/01 04:05:46;;;;;;;3.13;2.67;;;;;;;19.61;30.46;103026.50;5092104;28;20393;-70
2023/03/01 04:08:11;;;;;;;3.17;2.47;;;;;;;19.59;29.68;103032.00;5091107;28;20101;-69
2023/03/01 04:10:44;;;;;;;4.25;3.42;;;;;;;19.05;30.55;102945.50;5090782;28;20036;-70
2023/03/01 04:13:12;;;;;;;3.28;2.50;;;;;;;19.60;30.41;103027.47;5091917;28;20039;-69
2023/03/01 04:15:38;;;;;;;3.50;2.90;;;;;;;19.60;30.29;103027.47;5101103;28;20063;-70
2023/03/01 04:18:05;;;;;;;3.17;2.50;;;;;;;19.58;30.26;103024.91;5085948;28;20273;-69
2023/03/01 04:20:33;;;;;;;3.08;2.65;;;;;;;19.46;30.64;103004.28;5095907;28;20057;-70
2023/03/01 04:23:12;;;;;;;4.22;3.05;;;;;;;19.61;30.34;103038.16;5096830;28;20028;-70
2023/03/01 04:25:53;;;;;;;3.97;3.03;;;;;;;19.61;30.31;103042.69;5094463;28;20134;-70
2023/03/01 04:28:20;;;;;;;4.20;2.88;;;;;;;19.61;30.28;103035.47;5088950;28;20035;-68
2023/03/01 04:30:45;;;;;;;3.22;2.60;;;;;;;19.62;30.24;103039.00;5095955;28;20062;-69
2023/03/01 04:33:11;;;;;;;3.65;2.70;;;;;;;19.61;30.46;103023.81;5100221;28;20027;-69
2023/03/01 04:35:37;;;;;;;3.53;2.55;;;;;;;19.63;30.20;103021.88;5093579;28;20040;-69
2023/03/01 04:38:03;;;;;;;4.00;2.45;;;;;;;19.61;30.15;103026.50;5087162;28;20028;-69
2023/03/01 04:40:29;;;;;;;3.53;2.58;;;;;;;19.64;29.95;103020.88;5091882;28;20026;-69
2023/03/01 04:42:54;;;;;;;2.92;2.53;;;;;;;19.10;30.36;102941.44;5103538;28;20052;-69
2023/03/01 04:45:19;;;;;;;3.22;2.33;;;;;;;19.54;30.29;103004.53;5093119;28;20040;-69
2023/03/01 04:47:46;;;;;;;2.83;2.42;;;;;;;19.11;30.02;102923.44;5086517;28;20024;-69
2023/03/01 04:50:14;;;;;;;2.80;2.50;;;;;;;19.62;29.98;102999.38;5092660;28;20040;-69
2023/03/01 04:52:39;;;;;;;3.08;2.78;;;;;;;19.64;30.05;103000.13;5092460;28;20028;-68
2023/03/01 04:55:05;;;;;;;3.75;2.75;;;;;;;19.65;30.04;102995.59;5091542;28;20039;-69
2023/03/01 04:57:31;;;;;;;3.70;2.40;;;;;;;19.28;30.11;102940.97;5091221;28;20032;-69
2023/03/01 04:59:57;;;;;;;4.03;2.90;;;;;;;19.49;30.33;102966.25;5100995;28;20028;-70
2023/03/01 05:02:22;;;;;;;3.60;2.60;;;;;;;19.66;30.20;102983.81;5085458;28;20055;-68
2023/03/01 05:04:47;;;;;;;3.08;2.35;;;;;;;19.23;30.34;102903.59;5100938;28;20032;-69
2023/03/01 05:07:19;;;;;;;2.70;2.30;;;;;;;19.21;29.89;102903.72;5104166;28;20038;-68
2023/03/01 05:09:45;;;;;;;2.72;2.28;;;;;;;19.68;29.72;102976.47;5099988;28;20020;-69
2023/03/01 05:12:12;;;;;;;4.10;2.50;;;;;;;19.49;29.85;102944.66;5099770;28;20028;-69
2023/03/01 05:14:38;;;;;;;3.00;2.67;;;;;;;19.68;30.00;102976.47;5086762;28;20053;-69
2023/03/01 05:17:03;;;;;;;2.90;2.50;;;;;;;19.66;29.76;102973.88;5091019;28;20048;-69
2023/03/01 05:19:30;;;;;;;3.67;2.95;;;;;;;19.68;30.00;102968.38;5100220;28;20066;-68
2023/03/01 05:22:03;;;;;;;3.08;2.58;;;;;;;19.69;29.99;102964.69;5099633;28;20035;-70
2023/03/01 05:24:30;;;;;;;3.03;2.22;;;;;;;19.68;29.86;102960.28;5092254;28;20024;-69
2023/03/01 05:26:56;;;;;;;2.55;2.20;;;;;;;19.59;29.85;102950.19;5091408;28;20028;-68
2023/03/01 05:29:24;;;;;;;2.90;2.40;;;;;;;19.68;29.97;102962.97;5096949;28;20137;-67
2023/03/01 05:31:54;;;;;;;3.70;3.05;;;;;;;19.23;30.21;102890.97;5097751;28;20020;-67
2023/03/01 05:34:38;;;;;;;3.92;2.47;;;;;;;19.72;30.46;102951.81;5103343;28;20027;-67
2023/03/01 05:37:04;;;;;;;2.80;2.25;;;;;;;19.75;30.67;102964.16;5090499;28;20358;-67
2023/03/01 05:39:31;;;;;;;3.03;2.38;;;;;;;19.55;30.58;102925.28;5098611;28;20834;-67
2023/03/01 05:41:59;;;;;;;5.53;2.83;;;;;;;19.70;30.38;102958.28;5097659;28;20032;-68
2023/03/01 05:44:25;;;;;;;2.73;2.43;;;;;;;19.77;30.47;102964.06;5099944;28;20032;-69
2023/03/01 05:46:50;;;;;;;3.28;2.35;;;;;;;19.53;30.57;102921.00;5098621;28;20078;-70
2023/03/01 05:49:16;;;;;;;2.78;2.33;;;;;;;19.78;30.47;102954.97;5097481;28;20023;-67
2023/03/01 05:51:43;;;;;;;4.32;2.47;;;;;;;19.78;30.45;102950.44;5084603;28;20038;-68
2023/03/01 05:54:09;;;;;;;2.92;2.50;;;;;;;19.33;30.78;102883.00;5097770;28;20020;-68
2023/03/01 05:56:35;;;;;;;2.70;2.42;;;;;;;19.82;30.38;102951.06;5096250;28;20072;-67
2023/03/01 05:59:01;;;;;;;2.97;2.42;;;;;;;19.80;30.57;102951.19;5097573;28;20027;-69
2023/03/01 06:01:26;;;;;;;3.47;2.38;;;;;;;19.27;30.73;102864.59;5084309;28;20051;-68
2023/03/01 06:03:52;;;;;;;2.60;2.40;;;;;;;19.87;30.53;102957.78;5094177;28;20052;-70
2023/03/01 06:06:17;;;;;;;4.13;2.38;;;;;;;19.86;30.61;102953.38;5096240;28;20016;-69
2023/03/01 06:08:43;;;;;;;5.30;2.75;;;;;;;19.68;30.69;102917.94;5098062;28;20016;-71
2023/03/01 06:11:08;;;;;;;3.70;2.40;;;;;;;19.81;30.80;102938.53;5097077;28;20844;-68
2023/03/01 06:13:33;;;;;;;3.90;3.03;;;;;;;19.89;30.64;102950.44;5097754;28;20031;-69
2023/03/01 06:15:59;;;;;;;3.00;2.50;;;;;;;19.89;30.50;102950.44;5095818;28;20031;-69
2023/03/01 06:18:24;;;;;;;4.47;2.65;;;;;;;19.74;30.93;102921.97;5096014;28;20042;-69
2023/03/01 06:20:54;;;;;;;4.05;2.97;;;;;;;19.38;30.49;102867.31;5098472;28;20039;-70
2023/03/01 06:23:19;;;;;;;4.93;2.45;;;;;;;19.76;30.93;102921.88;5097592;28;20039;-70
2023/03/01 06:25:44;;;;;;;2.83;2.50;;;;;;;19.61;30.92;102903.22;5093996;28;20021;-70
2023/03/01 06:28:10;;;;;;;3.60;2.70;;;;;;;19.23;30.80;102838.88;5093873;28;20039;-70
2023/03/01 06:30:35;;;;;;;2.97;2.30;;;;;;;19.88;30.50;102945.13;5088548;28;20082;-70
2023/03/01 06:33:01;;;;;;;5.30;2.92;;;;;;;19.30;30.53;102850.88;5095141;28;20032;-69
2023/03/01 06:35:29;;;;;;;4.10;2.80;;;;;;;19.65;30.52;102896.59;5084503;28;20032;-68
2023/03/01 06:37:55;;;;;;;4.03;2.67;;;;;;;19.67;30.38;102905.44;5076483;28;20032;-69
2023/03/01 06:40:21;;;;;;;3.38;2.35;;;;;;;19.94;30.66;102948.19;5089007;28;20028;-70
2023/03/01 06:42:49;;;;;;;2.50;2.30;;;;;;;19.90;30.55;102948.59;5089306;28;20500;-70
2023/03/01 06:45:14;;;;;;;4.82;2.80;;;;;;;19.38;30.38;102867.31;5091258;28;20055;-70
2023/03/01 06:47:39;;;;;;;4.35;2.72;;;;;;;19.49;30.52;102888.84;5092297;28;20028;-70
2023/03/01 06:50:05;;;;;;;3.70;2.80;;;;;;;19.49;30.44;102877.22;5099168;28;20024;-70
2023/03/01 06:52:31;;;;;;;5.63;3.00;;;;;;;19.96;30.62;102962.44;5088971;28;20020;-70
2023/03/01 06:54:56;;;;;;;2.58;2.30;;;;;;;19.82;30.04;102946.50;5101470;28;20560;-72
2023/03/01 06:57:21;;;;;;;5.10;2.50;;;;;;;19.91;30.28;102951.16;5099774;28;20099;-71
2023/03/01 06:59:47;;;;;;;3.13;2.67;;;;;;;19.40;30.15;102864.47;5088028;28;20040;-74
2023/03/01 07:02:13;;;;;;;4.20;2.83;;;;;;;19.98;30.13;102959.63;5083533;28;20031;-73
2023/03/01 07:04:39;;;;;;;4.35;2.83;;;;;;;19.06;30.18;102823.19;5097096;28;20092;-74
2023/03/01 07:07:05;;;;;;;4.20;2.92;;;;;;;20.01;30.41;102970.16;5080298;28;20046;-74
2023/03/01 07:09:30;;;;;;;5.30;3.00;;;;;;;19.45;30.20;102871.22;5081071;28;20017;-74
2023/03/01 07:11:57;;;;;;;3.25;2.47;;;;;;;19.84;30.12;102927.50;5092210;28;20094;-74
2023/03/01 07:14:25;;;;;;;3.17;2.50;;;;;;;19.30;29.84;102858.97;5083847;28;20025;-71
2023/03/01 07:16:51;;;;;;;4.10;2.90;;;;;;;19.95;30.05;102946.34;5087483;28;20035;-70
2023/03/01 07:19:16;;;;;;;2.72;2.30;;;;;;;19.84;29.94;102936.47;5090761;28;20281;-70
2023/03/01 07:21:41;;;;;;;4.22;2.80;;;;;;;20.06;29.64;102972.50;5098127;28;20037;-70
2023/03/01 07:24:08;;;;;;;3.15;2.42;;;;;;;20.05;29.58;102971.63;5087775;28;20060;-70
2023/03/01 07:26:33;;;;;;;4.15;3.28;;;;;;;19.46;29.66;102874.78;5091164;28;20024;-71
2023/03/01 07:29:00;;;;;;;2.80;2.42;;;;;;;19.55;29.69;102887.53;5091063;28;20088;-70
2023/03/01 07:31:27;;;;;;;3.60;2.55;;;;;;;19.85;29.43;102951.66;5095167;28;20091;-70
2023/03/01 07:33:53;;;;;;;3.90;2.60;;;;;;;20.02;29.87;102963.78;5095371;28;20032;-70
2023/03/01 07:36:18;;;;;;;3.22;2.92;;;;;;;19.82;29.57;102927.59;5101619;28;20021;-70
2023/03/01 07:38:43;;;;;;;3.85;2.75;;;;;;;19.25;29.23;102845.00;5092354;28;20028;-70
2023/03/01 07:41:08;;;;;;;3.55;2.88;;;;;;;19.59;29.66;102888.13;5094741;28;20619;-71
2023/03/01 07:43:34;;;;;;;4.07;3.08;;;;;;;19.97;29.42;102953.34;5095177;28;20043;-69
2023/03/01 07:46:00;;;;;;;4.60;3.13;;;;;;;20.10;29.53;102964.00;5092691;28;20053;-71
2023/03/01 07:48:26;;;;;;;3.50;2.80;;;;;;;20.12;29.38;102969.28;5088575;28;20040;-71
2023/03/01 07:50:51;;;;;;;3.88;2.88;;;;;;;20.12;29.33;102959.31;5095336;28;20024;-72
2023/03/01 07:53:16;;;;;;;3.15;2.85;;;;;;;19.69;29.55;102887.28;5092916;28;20032;-72
2023/03/01 07:55:42;;;;;;;3.45;2.42;;;;;;;20.08;29.54;102952.47;5094058;28;20028;-72
2023/03/01 07:58:07;;;;;;;4.60;2.92;;;;;;;19.72;29.45;102895.13;5089275;28;20025;-74
2023/03/01 08:00:32;;;;;;;3.60;2.65;;;;;;;20.17;29.27;102967.03;5094224;28;20028;-75
2023/03/01 08:03:01;;;;;;;4.25;2.90;;;;;;;19.69;29.34;102883.72;5088761;28;20044;-74
2023/03/01 08:05:27;;;;;;;3.53;2.78;;;;;;;20.18;29.26;102969.63;5079057;28;20032;-75
2023/03/01 08:07:53;;;;;;;2.97;2.55;;;;;;;20.19;29.39;102968.66;5088703;28;20028;-74
2023/03/01 08:10:19;;;;;;;3.10;2.80;;;;;;;20.20;29.40;102964.94;5093301;28;20017;-74
2023/03/01 08:12:44;;;;;;;3.78;2.60;;;;;;;20.20;29.49;102970.34;5089730;28;20028;-74
2023/03/01 08:15:10;;;;;;;3.30;2.42;;;;;;;19.70;29.55;102880.03;5093331;28;20025;-75
2023/03/01 08:17:35;;;;;;;2.88;2.10;;;;;;;20.08;29.42;102941.66;5088560;28;20729;-74
2023/03/01 08:20:00;;;;;;;3.03;2.20;;;;;;;20.10;29.35;102933.44;5094520;28;20058;-74
2023/03/01 08:22:26;;;;;;;3.33;2.40;;;;;;;20.22;29.46;102951.34;5093045;28;20043;-74
2023/03/01 08:24:51;;;;;;;3.15;2.22;;;;;;;20.27;29.33;102953.66;5085743;28;20039;-75
2023/03/01 08:27:17;;;;;;;3.00;2.35;;;;;;;20.27;28.98;102954.50;5099583;28;20131;-74
2023/03/01 08:29:42;;;;;;;3.50;2.35;;;;;;;20.29;29.37;102957.91;5092350;28;20058;-75
2023/03/01 08:32:08;;;;;;;3.30;2.30;;;;;;;20.31;29.30;102955.13;5096748;28;20024;-74
2023/03/01 08:34:35;;;;;;;4.57;2.65;;;;;;;20.15;29.07;102932.06;5092245;28;20028;-74
2023/03/01 08:37:01;;;;;;;3.00;2.60;;;;;;;20.38;29.25;102948.19;5091204;28;20035;-75
2023/03/01 08:39:26;;;;;;;3.67;2.35;;;;;;;20.41;29.09;102958.75;5092081;28;20036;-74
2023/03/01 08:41:52;;;;;;;3.25;2.38;;;;;;;20.27;28.92;102932.03;5097870;28;20032;-72
2023/03/01 08:44:18;;;;;;;3.22;2.47;;;;;;;20.16;29.35;102914.88;5090147;28;20141;-73
2023/03/01 08:46:44;;;;;;;3.03;2.25;;;;;;;19.98;29.07;102878.63;5090932;28;20028;-74
2023/03/01 08:49:14;;;;;;;3.03;2.30;;;;;;;20.45;29.32;102950.25;5094657;28;20028;-73
2023/03/01 08:51:40;;;;;;;3.33;2.10;;;;;;;20.47;29.23;102947.41;5100638;28;20400;-73
2023/03/01 08:54:10;;;;;;;3.40;2.20;;;;;;;20.43;28.89;102938.72;5087973;28;20051;-73
2023/03/01 08:56:35;;;;;;;3.13;2.38;;;;;;;19.82;29.22;102841.22;5099730;28;20033;-74
2023/03/01 08:59:01;;;;;;;2.70;2.10;;;;;;;20.49;28.98;102941.94;5100123;28;20035;-73
2023/03/01 09:01:26;;;;;;;3.13;2.17;;;;;;;20.50;29.03;102938.22;5101008;28;20052;-73
2023/03/01 09:03:51;;;;;;;4.53;2.30;;;;;;;20.31;29.10;102899.25;5100663;28;20110;-73
2023/03/01 09:06:17;;;;;;;3.40;1.98;;;;;;;20.38;29.22;102915.75;5097254;28;20040;-73
2023/03/01 09:08:45;;;;;;;2.92;2.15;;;;;;;20.55;28.95;102936.00;5100493;28;20027;-74
2023/03/01 09:11:12;;;;;;;3.95;2.00;;;;;;;20.44;28.90;102923.38;5093541;28;20028;-73
2023/03/01 09:13:38;;;;;;;2.67;1.98;;;;;;;20.58;29.14;102939.28;5087871;28;20037;-73
2023/03/01 09:16:06;;;;;;;2.35;1.90;;;;;;;20.41;29.12;102905.56;5094723;28;20024;-72
2023/03/01 09:18:32;;;;;;;3.42;1.88;;;;;;;20.54;29.23;102932.44;5085375;28;20021;-72
2023/03/01 09:21:07;;;;;;;2.70;1.90;;;;;;;20.03;29.02;102840.44;5098504;28;20019;-72
2023/03/01 09:23:34;;;;;;;2.28;1.80;;;;;;;20.62;29.27;102934.50;5082262;28;20028;-72
2023/03/01 09:25:59;;;;;;;2.10;1.88;;;;;;;20.14;29.03;102845.78;5096955;28;20023;-71
2023/03/01 09:28:25;;;;;;;3.38;2.33;;;;;;;20.66;29.19;102930.53;5098352;28;20043;-71
2023/03/01 09:30:50;;;;;;;3.63;1.98;;;;;;;20.68;28.97;102929.41;5094244;28;20028;-71
2023/03/01 09:33:16;;;;;;;2.95;2.20;;;;;;;20.22;29.30;102851.41;5086335;28;20511;-73
2023/03/01 09:35:45;;;;;;;2.38;1.88;;;;;;;20.26;29.10;102858.22;5099418;28;20357;-73
2023/03/01 09:38:11;;;;;;;3.05;2.20;;;;;;;20.35;29.03;102862.88;5095181;28;20100;-74
2023/03/01 09:40:42;;;;;;;2.70;1.80;;;;;;;20.17;28.95;102816.66;5095349;28;20493;-73
2023/03/01 09:43:19;;;;;;;2.60;1.85;;;;;;;20.64;28.88;102889.25;5090485;28;20431;-74
2023/03/01 09:45:45;;;;;;;4.13;2.00;;;;;;;20.81;29.06;102926.50;5091125;28;20031;-73
2023/03/01 09:48:18;;;;;;;2.30;1.67;;;;;;;20.71;28.99;102901.25;5096595;28;20024;-74
2023/03/01 09:50:46;;;;;;;3.42;1.67;;;;;;;20.63;29.00;102883.00;5088860;28;20089;-74
2023/03/01 09:53:18;;;;;;;3.10;1.80;;;;;;;20.81;28.92;102907.56;5092349;28;20024;-75
2023/03/01 09:56:02;;;;;;;2.47;1.80;;;;;;;20.79;28.92;102887.94;5090959;28;20107;-73
2023/03/01 09:58:54;;;;;;;2.83;1.80;;;;;;;20.91;28.88;102904.94;5088054;28;20035;-73
2023/03/01 10:01:34;;;;;;;2.42;1.80;;;;;;;20.91;28.78;102900.41;5090530;28;20027;-72
2023/03/01 10:04:11;;;;;;;2.25;1.67;;;;;;;20.99;28.81;102899.72;5093751;28;20075;-71
2023/03/01 10:06:36;;;;;;;2.85;1.98;;;;;;;21.04;28.61;102891.22;5082849;28;20020;-73
2023/03/01 10:09:13;;;;;;;3.15;1.67;;;;;;;20.99;28.91;102866.44;5101594;28;20035;-72
2023/03/01 10:11:44;;;;;;;2.08;1.80;;;;;;;20.89;28.71;102839.31;5091902;28;20028;-71
2023/03/01 10:14:39;;;;;;;2.67;1.48;;;;;;;21.14;28.87;102884.84;5091611;28;20012;-72
2023/03/01 10:17:12;;;;;;;1.75;1.33;;;;;;;20.84;29.00;102826.19;5092935;28;20452;-73
2023/03/01 10:19:40;;;;;;;3.63;1.85;;;;;;;21.22;28.85;102874.19;5096259;28;20024;-73
2023/03/01 10:22:15;;;;;;;2.28;1.50;;;;;;;21.26;29.02;102874.78;5096940;28;20012;-73
2023/03/01 10:24:40;;;;;;;2.13;1.80;;;;;;;20.89;28.78;102810.44;5093043;28;20104;-73
2023/03/01 10:27:15;;;;;;;2.35;1.50;;;;;;;21.41;28.86;102870.75;5097850;28;20021;-73
2023/03/01 10:29:49;;;;;;;1.85;1.30;;;;;;;20.86;28.67;102778.28;5097057;28;20028;-73
2023/03/01 10:32:14;;;;;;;2.40;1.50;;;;;;;21.54;28.42;102864.25;5097301;28;20476;-73
2023/03/01 10:34:40;;;;;;;1.98;1.35;;;;;;;21.42;28.71;102844.53;5098846;28;20028;-73
2023/03/01 10:37:14;;;;;;;3.30;1.42;;;;;;;21.54;28.30;102854.25;5099176;28;20020;-73
2023/03/01 10:40:08;;;;;;;2.50;1.75;;;;;;;21.66;28.70;102865.81;5096614;28;20489;-72
2023/03/01 10:42:46;;;;;;;1.63;1.45;;;;;;;21.67;28.41;102851.31;5098327;28;20065;-73
2023/03/01 10:45:30;;;;;;;1.60;1.40;;;;;;;21.17;28.44;102770.13;5092995;28;20085;-72
2023/03/01 10:48:12;;;;;;;3.97;1.65;;;;;;;21.71;28.55;102856.28;5100371;28;20046;-71
2023/03/01 10:50:39;;;;;;;4.07;1.55;;;;;;;21.58;28.53;102828.63;5097024;28;20140;-72
2023/03/01 10:53:04;;;;;;;1.77;1.23;;;;;;;21.22;28.59;102755.16;5074158;28;20023;-72
2023/03/01 10:55:38;;;;;;;1.30;1.00;;;;;;;21.34;28.64;102765.91;5097657;28;20063;-73
2023/03/01 10:58:08;;;;;;;1.67;1.27;;;;;;;21.94;28.58;102853.31;5082981;28;20055;-73
2023/03/01 11:00:46;;;;;;;1.80;1.17;;;;;;;22.02;28.30;102842.63;5087241;28;20025;-74
2023/03/01 11:03:13;;;;;;;1.67;1.27;;;;;;;22.01;28.35;102845.50;5097251;28;20044;-74
2023/03/01 11:06:11;;;;;;;1.67;1.05;;;;;;;22.10;28.13;102844.63;5099818;28;20024;-74
2023/03/01 11:08:45;;;;;;;3.03;1.20;;;;;;;22.12;28.64;102837.19;5078286;28;20049;-73
2023/03/01 11:11:32;;;;;;;1.58;1.15;;;;;;;22.12;28.51;102831.78;5097996;28;20017;-73
2023/03/01 11:14:20;;;;;;;2.75;1.30;;;;;;;21.88;28.53;102794.31;5099748;28;20024;-74
2023/03/01 11:16:47;;;;;;;1.40;1.00;;;;;;;22.11;28.63;102835.50;5098176;28;20016;-73
2023/03/01 11:19:16;;;;;;;1.48;1.13;;;;;;;22.07;28.17;102834.91;5090591;28;20024;-74
2023/03/01 11:21:51;;;;;;;1.52;1.00;;;;;;;22.13;28.29;102841.66;5098177;28;20020;-74
2023/03/01 11:24:17;;;;;;;1.50;1.23;;;;;;;21.57;28.57;102737.56;5090920;28;20032;-73
2023/03/01 11:26:45;;;;;;;1.33;1.00;;;;;;;22.14;28.35;102832.53;5097627;28;20035;-74
2023/03/01 11:29:27;;;;;;;2.53;1.33;;;;;;;22.15;28.51;102828.81;5086738;28;20026;-73